THY6805 LTFJ-LTCF
Flight info
| Callsign | THY6805 |
|---|---|
| Flight time | 1h 45m |
| Altitude | 35000 |
| Route | LTFJ/06R N0460F350 VICE1W VICEN T380 ASMAP UL333 LATGA UT363 GURBU UA4 ERZ UT309 RAHMA RAHM1A LTCF/06R |
| Aircraft | B738/M-CDT/C |
Departure
| Time | 2026-05-04 04:54 |
|---|---|
| Airport | Istanbul Sabiha Gökçen International Airport (LTFJ) |
Arrival
| Time | 2026-05-04 06:40 |
|---|---|
| Airport | Kars Airport (LTCF) |
| Time | Latitude | Longitude | Altitude | Speed | Heading |
|---|---|---|---|---|---|
| 2026-05-04 04:33 | 40.89317 | 29.31355 | 305 ft | 0 kts | 244° |
| 2026-05-04 04:50 | 40.89309 | 29.31337 | 305 ft | 6 kts | 232° |
| 2026-05-04 04:50 | 40.89252 | 29.31329 | 306 ft | 12 kts | 174° |
| 2026-05-04 04:51 | 40.89174 | 29.31263 | 305 ft | 18 kts | 242° |
| 2026-05-04 04:51 | 40.89108 | 29.31086 | 304 ft | 25 kts | 244° |
| 2026-05-04 04:51 | 40.89024 | 29.30854 | 296 ft | 28 kts | 245° |
| 2026-05-04 04:51 | 40.88946 | 29.30635 | 286 ft | 27 kts | 244° |
| 2026-05-04 04:52 | 40.88865 | 29.30419 | 279 ft | 26 kts | 244° |
| 2026-05-04 04:52 | 40.88814 | 29.30282 | 279 ft | 24 kts | 244° |
| 2026-05-04 04:52 | 40.88740 | 29.30089 | 278 ft | 23 kts | 233° |
| 2026-05-04 04:52 | 40.88597 | 29.30084 | 278 ft | 22 kts | 156° |
| 2026-05-04 04:53 | 40.88477 | 29.30196 | 278 ft | 22 kts | 104° |
| 2026-05-04 04:53 | 40.88529 | 29.30377 | 280 ft | 22 kts | 63° |
| 2026-05-04 04:53 | 40.88688 | 29.30808 | 285 ft | 86 kts | 63° |
| 2026-05-04 04:53 | 40.89038 | 29.31761 | 309 ft | 143 kts | 65° |
| 2026-05-04 04:54 | 40.89583 | 29.33011 | 724 ft | 158 kts | 54° |
| 2026-05-04 04:54 | 40.90218 | 29.34199 | 1510 ft | 159 kts | 50° |
| 2026-05-04 04:54 | 40.90794 | 29.35369 | 2073 ft | 150 kts | 65° |
| 2026-05-04 04:54 | 40.91194 | 29.36634 | 2471 ft | 148 kts | 67° |
| 2026-05-04 04:55 | 40.91261 | 29.37987 | 2819 ft | 156 kts | 102° |
| 2026-05-04 04:55 | 40.90839 | 29.39299 | 3240 ft | 154 kts | 102° |
| 2026-05-04 04:55 | 40.90527 | 29.40642 | 3628 ft | 152 kts | 96° |
| 2026-05-04 04:55 | 40.90320 | 29.42032 | 4031 ft | 160 kts | 91° |
| 2026-05-04 04:56 | 40.90175 | 29.43567 | 4463 ft | 179 kts | 95° |
| 2026-05-04 04:56 | 40.89453 | 29.45017 | 4844 ft | 207 kts | 139° |
| 2026-05-04 04:56 | 40.88244 | 29.46072 | 5274 ft | 214 kts | 135° |
| 2026-05-04 04:56 | 40.86923 | 29.47120 | 5695 ft | 229 kts | 147° |
| 2026-05-04 04:57 | 40.85443 | 29.48037 | 6116 ft | 239 kts | 149° |
| 2026-05-04 04:57 | 40.83922 | 29.48966 | 6656 ft | 243 kts | 149° |
| 2026-05-04 04:57 | 40.82372 | 29.49910 | 7186 ft | 249 kts | 150° |
| 2026-05-04 04:57 | 40.80777 | 29.50904 | 7726 ft | 259 kts | 150° |
| 2026-05-04 04:58 | 40.79119 | 29.51949 | 8327 ft | 268 kts | 150° |
| 2026-05-04 04:58 | 40.77510 | 29.53225 | 8899 ft | 272 kts | 132° |
| 2026-05-04 04:58 | 40.76484 | 29.55280 | 9516 ft | 269 kts | 107° |
| 2026-05-04 04:58 | 40.75973 | 29.57654 | 10122 ft | 270 kts | 103° |
| 2026-05-04 04:59 | 40.75501 | 29.60100 | 10500 ft | 285 kts | 103° |
| 2026-05-04 04:59 | 40.74991 | 29.62731 | 10719 ft | 307 kts | 104° |
| 2026-05-04 04:59 | 40.74433 | 29.65543 | 10939 ft | 328 kts | 104° |
| 2026-05-04 04:59 | 40.73841 | 29.68488 | 11538 ft | 333 kts | 104° |
| 2026-05-04 05:00 | 40.73281 | 29.71435 | 12231 ft | 337 kts | 102° |
| 2026-05-04 05:00 | 40.72871 | 29.74514 | 12792 ft | 345 kts | 99° |
| 2026-05-04 05:00 | 40.72202 | 29.80826 | 14100 ft | 352 kts | 99° |
| 2026-05-04 05:01 | 40.71864 | 29.84040 | 14730 ft | 355 kts | 99° |
| 2026-05-04 05:01 | 40.71512 | 29.87292 | 15246 ft | 362 kts | 100° |
| 2026-05-04 05:01 | 40.71148 | 29.90576 | 15896 ft | 364 kts | 101° |
| 2026-05-04 05:01 | 40.70771 | 29.93909 | 16365 ft | 371 kts | 101° |
| 2026-05-04 05:02 | 40.70384 | 29.97293 | 16964 ft | 374 kts | 101° |
| 2026-05-04 05:02 | 40.69987 | 30.00708 | 17424 ft | 381 kts | 102° |
| 2026-05-04 05:02 | 40.69586 | 30.04189 | 17965 ft | 386 kts | 101° |
| 2026-05-04 05:02 | 40.69182 | 30.07704 | 18473 ft | 390 kts | 101° |
| 2026-05-04 05:03 | 40.68771 | 30.11257 | 18921 ft | 394 kts | 102° |
| 2026-05-04 05:03 | 40.68354 | 30.14842 | 19430 ft | 398 kts | 102° |
| 2026-05-04 05:04 | 40.67075 | 30.25793 | 20854 ft | 408 kts | 103° |
| 2026-05-04 05:04 | 40.66644 | 30.29450 | 21323 ft | 410 kts | 103° |
| 2026-05-04 05:04 | 40.66245 | 30.33191 | 21704 ft | 417 kts | 102° |
| 2026-05-04 05:06 | 40.64032 | 30.60611 | 24441 ft | 440 kts | 103° |
| 2026-05-04 05:06 | 40.63692 | 30.64624 | 24788 ft | 443 kts | 103° |
| 2026-05-04 05:06 | 40.63348 | 30.68668 | 25146 ft | 445 kts | 103° |
| 2026-05-04 05:07 | 40.62897 | 30.72634 | 25456 ft | 442 kts | 110° |
| 2026-05-04 05:07 | 40.62113 | 30.76600 | 25792 ft | 441 kts | 113° |
| 2026-05-04 05:07 | 40.61277 | 30.80429 | 26131 ft | 442 kts | 114° |
| 2026-05-04 05:09 | 40.54427 | 31.12170 | 28555 ft | 458 kts | 114° |
| 2026-05-04 05:09 | 40.53560 | 31.16219 | 28813 ft | 460 kts | 114° |
| 2026-05-04 05:10 | 40.52689 | 31.20271 | 29155 ft | 461 kts | 114° |
| 2026-05-04 05:10 | 40.51817 | 31.24324 | 29598 ft | 458 kts | 114° |
| 2026-05-04 05:10 | 40.50951 | 31.28338 | 30032 ft | 456 kts | 115° |
| 2026-05-04 05:10 | 40.50084 | 31.32337 | 30285 ft | 456 kts | 115° |
| 2026-05-04 05:11 | 40.49221 | 31.36306 | 30458 ft | 458 kts | 114° |
| 2026-05-04 05:11 | 40.48332 | 31.40393 | 30708 ft | 459 kts | 114° |
| 2026-05-04 05:11 | 40.47468 | 31.44372 | 31020 ft | 459 kts | 114° |
| 2026-05-04 05:11 | 40.46592 | 31.48393 | 31302 ft | 458 kts | 114° |
| 2026-05-04 05:12 | 40.45712 | 31.52421 | 31561 ft | 459 kts | 114° |
| 2026-05-04 05:12 | 40.44829 | 31.56457 | 31836 ft | 460 kts | 114° |
| 2026-05-04 05:12 | 40.43948 | 31.60485 | 32116 ft | 460 kts | 114° |
| 2026-05-04 05:12 | 40.43062 | 31.64527 | 32356 ft | 460 kts | 114° |
| 2026-05-04 05:13 | 40.42178 | 31.68552 | 32613 ft | 460 kts | 113° |
| 2026-05-04 05:13 | 40.41287 | 31.72601 | 32881 ft | 460 kts | 113° |
| 2026-05-04 05:13 | 40.40401 | 31.76627 | 33143 ft | 460 kts | 113° |
| 2026-05-04 05:13 | 40.39512 | 31.80654 | 33372 ft | 460 kts | 113° |
| 2026-05-04 05:14 | 40.38617 | 31.84698 | 33611 ft | 461 kts | 113° |
| 2026-05-04 05:14 | 40.37736 | 31.88682 | 33879 ft | 460 kts | 113° |
| 2026-05-04 05:14 | 40.36831 | 31.92760 | 34071 ft | 460 kts | 113° |
| 2026-05-04 05:14 | 40.35947 | 31.96734 | 34238 ft | 461 kts | 113° |
| 2026-05-04 05:15 | 40.35042 | 32.00766 | 34419 ft | 460 kts | 112° |
| 2026-05-04 05:15 | 40.34139 | 32.04782 | 34642 ft | 460 kts | 112° |
| 2026-05-04 05:15 | 40.33234 | 32.08802 | 34804 ft | 460 kts | 112° |
| 2026-05-04 05:15 | 40.32356 | 32.12855 | 34786 ft | 464 kts | 111° |
| 2026-05-04 05:16 | 40.30750 | 32.21044 | 34800 ft | 463 kts | 110° |
| 2026-05-04 05:16 | 40.29179 | 32.29206 | 34799 ft | 460 kts | 110° |
| 2026-05-04 05:17 | 40.27585 | 32.37312 | 34780 ft | 458 kts | 110° |
| 2026-05-04 05:17 | 40.25979 | 32.45374 | 34783 ft | 456 kts | 110° |
| 2026-05-04 05:18 | 40.24529 | 32.52608 | 34788 ft | 455 kts | 110° |
| 2026-05-04 05:18 | 40.22929 | 32.60564 | 34783 ft | 456 kts | 110° |
| 2026-05-04 05:19 | 40.21307 | 32.68601 | 34775 ft | 457 kts | 110° |
| 2026-05-04 05:19 | 40.19679 | 32.76643 | 34778 ft | 458 kts | 110° |
| 2026-05-04 05:20 | 40.18038 | 32.84719 | 34780 ft | 460 kts | 110° |
| 2026-05-04 05:20 | 40.16388 | 32.92816 | 34776 ft | 462 kts | 110° |
| 2026-05-04 05:21 | 40.14867 | 33.00997 | 34762 ft | 467 kts | 102° |
| 2026-05-04 05:21 | 40.14758 | 33.09539 | 34782 ft | 474 kts | 92° |
| 2026-05-04 05:22 | 40.15096 | 33.18154 | 34773 ft | 475 kts | 91° |
| 2026-05-04 05:22 | 40.15397 | 33.26727 | 34766 ft | 474 kts | 92° |
| 2026-05-04 05:23 | 40.15646 | 33.35337 | 34763 ft | 473 kts | 92° |
| 2026-05-04 05:23 | 40.15873 | 33.43915 | 34756 ft | 472 kts | 92° |
| 2026-05-04 05:24 | 40.16095 | 33.52474 | 34759 ft | 470 kts | 92° |
| 2026-05-04 05:24 | 40.16312 | 33.61019 | 34754 ft | 470 kts | 92° |
| 2026-05-04 05:25 | 40.16523 | 33.69551 | 34757 ft | 469 kts | 92° |
| 2026-05-04 05:25 | 40.16727 | 33.78013 | 34753 ft | 468 kts | 92° |
| 2026-05-04 05:26 | 40.16533 | 33.86446 | 34756 ft | 460 kts | 105° |
| 2026-05-04 05:26 | 40.15297 | 33.94644 | 34760 ft | 459 kts | 105° |
| 2026-05-04 05:28 | 40.11639 | 34.27828 | 34829 ft | 450 kts | 99° |
| 2026-05-04 05:29 | 40.10751 | 34.35901 | 34768 ft | 448 kts | 99° |
| 2026-05-04 05:29 | 40.09861 | 34.43906 | 34761 ft | 447 kts | 99° |
| 2026-05-04 05:31 | 40.06211 | 34.76186 | 34758 ft | 454 kts | 100° |
| 2026-05-04 05:32 | 40.05273 | 34.84361 | 34756 ft | 456 kts | 100° |
| 2026-05-04 05:33 | 40.03855 | 34.96614 | 34755 ft | 459 kts | 100° |
| 2026-05-04 05:33 | 40.02893 | 35.04863 | 34755 ft | 459 kts | 100° |
| 2026-05-04 05:34 | 40.01928 | 35.13090 | 34753 ft | 459 kts | 100° |
| 2026-05-04 05:34 | 40.00955 | 35.21325 | 34749 ft | 458 kts | 101° |
| 2026-05-04 05:35 | 39.99980 | 35.29534 | 34748 ft | 457 kts | 101° |
| 2026-05-04 05:35 | 39.99001 | 35.37710 | 34748 ft | 456 kts | 101° |
| 2026-05-04 05:36 | 39.97979 | 35.45867 | 34734 ft | 455 kts | 101° |
| 2026-05-04 05:36 | 39.96942 | 35.54011 | 34747 ft | 454 kts | 102° |
| 2026-05-04 05:37 | 39.95913 | 35.62084 | 34752 ft | 454 kts | 102° |
| 2026-05-04 05:37 | 39.94874 | 35.70216 | 34746 ft | 455 kts | 102° |
| 2026-05-04 05:38 | 39.93303 | 35.82435 | 34750 ft | 456 kts | 102° |
| 2026-05-04 05:38 | 39.92244 | 35.90609 | 34755 ft | 458 kts | 102° |
| 2026-05-04 05:39 | 39.90640 | 36.02887 | 34745 ft | 459 kts | 103° |
| 2026-05-04 05:40 | 39.89023 | 36.15159 | 34754 ft | 461 kts | 103° |
| 2026-05-04 05:40 | 39.87931 | 36.23403 | 34760 ft | 462 kts | 103° |
| 2026-05-04 05:41 | 39.86798 | 36.31639 | 34751 ft | 463 kts | 105° |
| 2026-05-04 05:41 | 39.85577 | 36.39867 | 34753 ft | 464 kts | 104° |
| 2026-05-04 05:42 | 39.84481 | 36.48135 | 34768 ft | 464 kts | 104° |
| 2026-05-04 05:42 | 39.83400 | 36.56427 | 34775 ft | 464 kts | 104° |
| 2026-05-04 05:43 | 39.82482 | 36.63318 | 34789 ft | 464 kts | 104° |
| 2026-05-04 05:45 | 39.79395 | 36.96632 | 34808 ft | 476 kts | 88° |
| 2026-05-04 05:47 | 39.82329 | 37.30999 | 34796 ft | 479 kts | 89° |
| 2026-05-04 05:47 | 39.83012 | 37.39633 | 34807 ft | 480 kts | 89° |
| 2026-05-04 05:48 | 39.83686 | 37.48265 | 34807 ft | 480 kts | 90° |
| 2026-05-04 05:48 | 39.84346 | 37.56909 | 34813 ft | 480 kts | 90° |
| 2026-05-04 05:49 | 39.84995 | 37.65502 | 34827 ft | 480 kts | 90° |
| 2026-05-04 05:49 | 39.85644 | 37.74156 | 34824 ft | 480 kts | 90° |
| 2026-05-04 05:51 | 39.88184 | 38.08737 | 34821 ft | 478 kts | 90° |
| 2026-05-04 05:52 | 39.88804 | 38.17287 | 34824 ft | 477 kts | 90° |
| 2026-05-04 05:52 | 39.89420 | 38.25896 | 34813 ft | 477 kts | 91° |
| 2026-05-04 05:54 | 39.91803 | 38.60101 | 34781 ft | 471 kts | 91° |
| 2026-05-04 05:55 | 39.92378 | 38.68581 | 34774 ft | 469 kts | 91° |
| 2026-05-04 05:55 | 39.92946 | 38.77046 | 34769 ft | 468 kts | 91° |
| 2026-05-04 05:56 | 39.93507 | 38.85505 | 34780 ft | 468 kts | 91° |
| 2026-05-04 05:56 | 39.93886 | 38.93904 | 34779 ft | 466 kts | 95° |
| 2026-05-04 05:57 | 39.93950 | 39.02336 | 34764 ft | 466 kts | 95° |
| 2026-05-04 05:57 | 39.94058 | 39.10798 | 34767 ft | 467 kts | 94° |
| 2026-05-04 05:58 | 39.94198 | 39.19283 | 34755 ft | 468 kts | 94° |
| 2026-05-04 05:58 | 39.94333 | 39.27763 | 34765 ft | 468 kts | 94° |
| 2026-05-04 05:59 | 39.94460 | 39.36262 | 34771 ft | 468 kts | 95° |
| 2026-05-04 05:59 | 39.94579 | 39.44738 | 34775 ft | 468 kts | 94° |
| 2026-05-04 06:00 | 39.94692 | 39.53162 | 34779 ft | 467 kts | 94° |
| 2026-05-04 06:00 | 39.94799 | 39.61627 | 34775 ft | 467 kts | 94° |
| 2026-05-04 06:01 | 39.94902 | 39.70074 | 34780 ft | 466 kts | 94° |
| 2026-05-04 06:03 | 39.95249 | 40.03820 | 34806 ft | 466 kts | 94° |
| 2026-05-04 06:05 | 39.95508 | 40.41986 | 34831 ft | 472 kts | 94° |
| 2026-05-04 06:06 | 39.95550 | 40.50542 | 34782 ft | 473 kts | 95° |
| 2026-05-04 06:06 | 39.95568 | 40.54844 | 34493 ft | 475 kts | 95° |
| 2026-05-04 06:06 | 39.95586 | 40.59146 | 34122 ft | 474 kts | 94° |
| 2026-05-04 06:06 | 39.95606 | 40.63427 | 33680 ft | 470 kts | 95° |
| 2026-05-04 06:07 | 39.95619 | 40.67665 | 33191 ft | 465 kts | 95° |
| 2026-05-04 06:07 | 39.95631 | 40.71857 | 32714 ft | 459 kts | 95° |
| 2026-05-04 06:07 | 39.95642 | 40.75992 | 32240 ft | 454 kts | 95° |
| 2026-05-04 06:07 | 39.95652 | 40.80092 | 31792 ft | 449 kts | 95° |
| 2026-05-04 06:08 | 39.95660 | 40.84130 | 31344 ft | 445 kts | 95° |
| 2026-05-04 06:08 | 39.95667 | 40.88158 | 30900 ft | 441 kts | 95° |
| 2026-05-04 06:08 | 39.95672 | 40.92134 | 30468 ft | 437 kts | 95° |
| 2026-05-04 06:08 | 39.95676 | 40.96078 | 30037 ft | 434 kts | 95° |
| 2026-05-04 06:09 | 39.95677 | 41.00002 | 29551 ft | 431 kts | 95° |
| 2026-05-04 06:09 | 39.95678 | 41.03901 | 29041 ft | 429 kts | 95° |
| 2026-05-04 06:11 | 39.98649 | 41.30138 | 25874 ft | 421 kts | 70° |
| 2026-05-04 06:11 | 39.99833 | 41.33605 | 25499 ft | 417 kts | 70° |
| 2026-05-04 06:13 | 40.07567 | 41.57034 | 23270 ft | 387 kts | 72° |
| 2026-05-04 06:14 | 40.13660 | 41.75857 | 21309 ft | 364 kts | 72° |
| 2026-05-04 06:14 | 40.14634 | 41.78900 | 21006 ft | 361 kts | 73° |
| 2026-05-04 06:15 | 40.15611 | 41.81957 | 20691 ft | 358 kts | 73° |
| 2026-05-04 06:15 | 40.16554 | 41.84912 | 20387 ft | 355 kts | 73° |
| 2026-05-04 06:15 | 40.17501 | 41.87882 | 20097 ft | 352 kts | 73° |
| 2026-05-04 06:15 | 40.18436 | 41.90816 | 19792 ft | 350 kts | 73° |
| 2026-05-04 06:16 | 40.19372 | 41.93756 | 19504 ft | 347 kts | 73° |
| 2026-05-04 06:16 | 40.20295 | 41.96660 | 19213 ft | 344 kts | 73° |
| 2026-05-04 06:16 | 40.21210 | 41.99539 | 18934 ft | 342 kts | 73° |
| 2026-05-04 06:16 | 40.22121 | 42.02410 | 18641 ft | 340 kts | 73° |
| 2026-05-04 06:17 | 40.23025 | 42.05259 | 18370 ft | 338 kts | 73° |
| 2026-05-04 06:17 | 40.23923 | 42.08097 | 18072 ft | 337 kts | 73° |
| 2026-05-04 06:17 | 40.24816 | 42.10925 | 17758 ft | 335 kts | 73° |
| 2026-05-04 06:17 | 40.25705 | 42.13742 | 17444 ft | 334 kts | 73° |
| 2026-05-04 06:18 | 40.26589 | 42.16541 | 17127 ft | 332 kts | 73° |
| 2026-05-04 06:18 | 40.27473 | 42.19341 | 16826 ft | 332 kts | 73° |
| 2026-05-04 06:18 | 40.28352 | 42.22135 | 16603 ft | 332 kts | 73° |
| 2026-05-04 06:20 | 40.34607 | 42.42071 | 15938 ft | 342 kts | 73° |
| 2026-05-04 06:20 | 40.35509 | 42.44953 | 15823 ft | 342 kts | 73° |
| 2026-05-04 06:21 | 40.38180 | 42.56629 | 15342 ft | 330 kts | 88° |
| 2026-05-04 06:21 | 40.38487 | 42.59600 | 15213 ft | 329 kts | 88° |
| 2026-05-04 06:22 | 40.38795 | 42.62562 | 15038 ft | 324 kts | 88° |
| 2026-05-04 06:22 | 40.39104 | 42.65422 | 14926 ft | 318 kts | 88° |
| 2026-05-04 06:25 | 40.43106 | 43.00456 | 13509 ft | 289 kts | 87° |
| 2026-05-04 06:25 | 40.43404 | 43.03058 | 13397 ft | 287 kts | 87° |
| 2026-05-04 06:26 | 40.43698 | 43.05638 | 13282 ft | 285 kts | 87° |
| 2026-05-04 06:26 | 40.43990 | 43.08207 | 13182 ft | 283 kts | 87° |
| 2026-05-04 06:26 | 40.44278 | 43.10752 | 13070 ft | 282 kts | 87° |
| 2026-05-04 06:26 | 40.44566 | 43.13302 | 12960 ft | 280 kts | 87° |
| 2026-05-04 06:27 | 40.46219 | 43.23356 | 12616 ft | 289 kts | 69° |
| 2026-05-04 06:28 | 40.47102 | 43.25705 | 12532 ft | 286 kts | 67° |
| 2026-05-04 06:28 | 40.47996 | 43.28026 | 12454 ft | 283 kts | 67° |
| 2026-05-04 06:28 | 40.48861 | 43.30309 | 12370 ft | 282 kts | 68° |
| 2026-05-04 06:28 | 40.49722 | 43.32625 | 12292 ft | 284 kts | 68° |
| 2026-05-04 06:29 | 40.50579 | 43.34959 | 12190 ft | 281 kts | 68° |
| 2026-05-04 06:29 | 40.51412 | 43.37244 | 12049 ft | 274 kts | 69° |
| 2026-05-04 06:29 | 40.52219 | 43.39473 | 11896 ft | 268 kts | 69° |
| 2026-05-04 06:29 | 40.53012 | 43.41673 | 11764 ft | 261 kts | 69° |
| 2026-05-04 06:30 | 40.53779 | 43.43799 | 11662 ft | 255 kts | 69° |
| 2026-05-04 06:30 | 40.54530 | 43.45885 | 11528 ft | 250 kts | 69° |
| 2026-05-04 06:30 | 40.55510 | 43.47790 | 11352 ft | 259 kts | 42° |
| 2026-05-04 06:30 | 40.57104 | 43.48806 | 11195 ft | 254 kts | 6° |
| 2026-05-04 06:31 | 40.58786 | 43.48572 | 11066 ft | 238 kts | 336° |
| 2026-05-04 06:31 | 40.60282 | 43.47726 | 10924 ft | 232 kts | 330° |
| 2026-05-04 06:31 | 40.61734 | 43.46795 | 10722 ft | 232 kts | 329° |
| 2026-05-04 06:31 | 40.63189 | 43.45865 | 10501 ft | 232 kts | 330° |
| 2026-05-04 06:32 | 40.64650 | 43.44944 | 10305 ft | 234 kts | 330° |
| 2026-05-04 06:33 | 40.64689 | 43.34829 | 8961 ft | 171 kts | 239° |
| 2026-05-04 06:34 | 40.64197 | 43.33466 | 8763 ft | 153 kts | 239° |
| 2026-05-04 06:34 | 40.63752 | 43.32235 | 8516 ft | 149 kts | 238° |
| 2026-05-04 06:34 | 40.63299 | 43.30986 | 8276 ft | 149 kts | 239° |
| 2026-05-04 06:34 | 40.62859 | 43.29773 | 8091 ft | 150 kts | 238° |
| 2026-05-04 06:35 | 40.62413 | 43.28540 | 7872 ft | 148 kts | 239° |
| 2026-05-04 06:36 | 40.59247 | 43.19798 | 6594 ft | 155 kts | 243° |
| 2026-05-04 06:37 | 40.58785 | 43.18519 | 6429 ft | 154 kts | 242° |
| 2026-05-04 06:37 | 40.58329 | 43.17259 | 6242 ft | 148 kts | 241° |
| 2026-05-04 06:37 | 40.57890 | 43.16048 | 6093 ft | 146 kts | 240° |
| 2026-05-04 06:37 | 40.57450 | 43.14835 | 5980 ft | 149 kts | 240° |
| 2026-05-04 06:38 | 40.57001 | 43.13617 | 5904 ft | 150 kts | 240° |
| 2026-05-04 06:38 | 40.56523 | 43.12428 | 5884 ft | 137 kts | 241° |
| 2026-05-04 06:40 | 40.56005 | 43.10809 | 5884 ft | 9 kts | 68° |
| 2026-05-04 06:40 | 40.56036 | 43.10909 | 5880 ft | 14 kts | 68° |
| 2026-05-04 06:40 | 40.56076 | 43.11047 | 5880 ft | 17 kts | 69° |
| 2026-05-04 06:40 | 40.56119 | 43.11165 | 5881 ft | 12 kts | 57° |
| 2026-05-04 06:41 | 40.56188 | 43.11218 | 5887 ft | 12 kts | 2° |
| 2026-05-04 06:41 | 40.56266 | 43.11186 | 5880 ft | 12 kts | 336° |
| 2026-05-04 06:41 | 40.56329 | 43.11150 | 5882 ft | 9 kts | 336° |
| 2026-05-04 06:41 | 40.56387 | 43.11115 | 5880 ft | 9 kts | 335° |
| 2026-05-04 06:42 | 40.56441 | 43.11082 | 5886 ft | 6 kts | 335° |
| 2026-05-04 06:42 | 40.56456 | 43.11073 | 5882 ft | 0 kts | 335° |